sensor_id;sensor_type;location;lat;lon;timestamp;pressure;altitude;pressure_sealevel;temperature;humidity
64189;BME280;50493;50.970;10.082;2023-08-08T00:01:49;99168.91;;;14.71;57.90
64189;BME280;50493;50.970;10.082;2023-08-08T00:04:14;99161.59;;;14.36;60.31
64189;BME280;50493;50.970;10.082;2023-08-08T00:06:39;99162.50;;;14.35;60.17
64189;BME280;50493;50.970;10.082;2023-08-08T00:09:05;99160.25;;;14.46;59.63
64189;BME280;50493;50.970;10.082;2023-08-08T00:11:30;99160.25;;;14.46;59.37
64189;BME280;50493;50.970;10.082;2023-08-08T00:13:56;99153.69;;;14.36;59.78
64189;BME280;50493;50.970;10.082;2023-08-08T00:16:23;99163.69;;;14.48;59.35
64189;BME280;50493;50.970;10.082;2023-08-08T00:18:49;99161.31;;;14.42;59.38
64189;BME280;50493;50.970;10.082;2023-08-08T00:21:15;99156.72;;;14.89;52.43
64189;BME280;50493;50.970;10.082;2023-08-08T00:23:41;99165.81;;;14.81;55.40
64189;BME280;50493;50.970;10.082;2023-08-08T00:26:06;99155.53;;;14.55;58.06
64189;BME280;50493;50.970;10.082;2023-08-08T00:28:32;99164.06;;;14.39;58.94
64189;BME280;50493;50.970;10.082;2023-08-08T00:30:57;99169.03;;;14.25;59.56
64189;BME280;50493;50.970;10.082;2023-08-08T00:33:24;99163.22;;;14.16;59.77
64189;BME280;50493;50.970;10.082;2023-08-08T00:35:49;99162.72;;;14.29;57.83
64189;BME280;50493;50.970;10.082;2023-08-08T00:38:15;99159.41;;;14.24;59.35
64189;BME280;50493;50.970;10.082;2023-08-08T00:40:42;99157.59;;;14.26;59.15
64189;BME280;50493;50.970;10.082;2023-08-08T00:43:07;99148.00;;;14.25;59.16
64189;BME280;50493;50.970;10.082;2023-08-08T00:45:33;99156.22;;;14.60;56.19
64189;BME280;50493;50.970;10.082;2023-08-08T00:47:59;99156.38;;;14.12;59.42
64189;BME280;50493;50.970;10.082;2023-08-08T00:50:26;99148.00;;;14.25;58.21
64189;BME280;50493;50.970;10.082;2023-08-08T00:52:52;99149.03;;;14.21;58.71
64189;BME280;50493;50.970;10.082;2023-08-08T00:55:18;99141.03;;;14.24;57.43
64189;BME280;50493;50.970;10.082;2023-08-08T00:57:44;99141.34;;;14.16;58.66
64189;BME280;50493;50.970;10.082;2023-08-08T01:00:10;99139.25;;;14.02;59.16
64189;BME280;50493;50.970;10.082;2023-08-08T01:02:36;99135.00;;;14.22;57.59
64189;BME280;50493;50.970;10.082;2023-08-08T01:05:02;99132.84;;;14.09;57.74
64189;BME280;50493;50.970;10.082;2023-08-08T01:07:36;99134.25;;;13.96;59.17
64189;BME280;50493;50.970;10.082;2023-08-08T01:10:06;99135.41;;;14.11;58.06
64189;BME280;50493;50.970;10.082;2023-08-08T01:12:34;99131.69;;;14.16;57.17
64189;BME280;50493;50.970;10.082;2023-08-08T01:15:07;99135.78;;;14.02;58.56
64189;BME280;50493;50.970;10.082;2023-08-08T01:17:35;99132.31;;;14.01;58.35
64189;BME280;50493;50.970;10.082;2023-08-08T01:20:01;99126.84;;;14.06;57.97
64189;BME280;50493;50.970;10.082;2023-08-08T01:22:35;99128.44;;;13.88;59.00
64189;BME280;50493;50.970;10.082;2023-08-08T01:25:03;99125.06;;;13.84;58.88
64189;BME280;50493;50.970;10.082;2023-08-08T01:27:30;99129.19;;;13.67;59.52
64189;BME280;50493;50.970;10.082;2023-08-08T01:29:55;99120.22;;;13.73;59.40
64189;BME280;50493;50.970;10.082;2023-08-08T01:32:21;99117.84;;;13.67;59.53
64189;BME280;50493;50.970;10.082;2023-08-08T01:34:46;99111.28;;;13.55;59.69
64189;BME280;50493;50.970;10.082;2023-08-08T01:37:18;99108.53;;;13.58;59.65
64189;BME280;50493;50.970;10.082;2023-08-08T01:39:46;99109.28;;;13.62;59.38
64189;BME280;50493;50.970;10.082;2023-08-08T01:42:14;99100.59;;;13.60;59.45
64189;BME280;50493;50.970;10.082;2023-08-08T01:44:41;99100.38;;;13.66;59.17
64189;BME280;50493;50.970;10.082;2023-08-08T01:47:07;99105.63;;;13.66;59.06
64189;BME280;50493;50.970;10.082;2023-08-08T01:49:33;99101.22;;;13.66;59.18
64189;BME280;50493;50.970;10.082;2023-08-08T01:51:58;99096.72;;;13.70;58.71
64189;BME280;50493;50.970;10.082;2023-08-08T01:54:24;99095.72;;;13.73;58.76
64189;BME280;50493;50.970;10.082;2023-08-08T01:56:49;99091.75;;;13.62;59.03
64189;BME280;50493;50.970;10.082;2023-08-08T01:59:16;99091.31;;;13.73;58.42
64189;BME280;50493;50.970;10.082;2023-08-08T02:01:41;99087.72;;;13.76;58.46
64189;BME280;50493;50.970;10.082;2023-08-08T02:04:07;99094.81;;;13.74;58.33
64189;BME280;50493;50.970;10.082;2023-08-08T02:06:32;99109.16;;;13.65;58.63
64189;BME280;50493;50.970;10.082;2023-08-08T02:08:57;99100.72;;;13.57;58.82
64189;BME280;50493;50.970;10.082;2023-08-08T02:11:23;99105.16;;;13.55;58.92
64189;BME280;50493;50.970;10.082;2023-08-08T02:13:48;99104.94;;;13.61;58.53
64189;BME280;50493;50.970;10.082;2023-08-08T02:16:15;99093.94;;;13.73;57.83
64189;BME280;50493;50.970;10.082;2023-08-08T02:18:40;99096.72;;;13.70;58.26
64189;BME280;50493;50.970;10.082;2023-08-08T02:21:06;99105.00;;;13.59;58.54
64189;BME280;50493;50.970;10.082;2023-08-08T02:23:32;99100.66;;;13.58;58.58
64189;BME280;50493;50.970;10.082;2023-08-08T02:25:57;99104.03;;;13.62;58.42
64189;BME280;50493;50.970;10.082;2023-08-08T02:28:23;99104.03;;;13.62;58.29
64189;BME280;50493;50.970;10.082;2023-08-08T02:30:48;99107.56;;;13.61;58.35
64189;BME280;50493;50.970;10.082;2023-08-08T02:33:15;99099.28;;;13.94;57.21
64189;BME280;50493;50.970;10.082;2023-08-08T02:35:40;99096.63;;;13.95;56.73
64189;BME280;50493;50.970;10.082;2023-08-08T02:38:06;99091.66;;;14.10;56.75
64189;BME280;50493;50.970;10.082;2023-08-08T02:40:31;99089.38;;;13.78;57.46
64189;BME280;50493;50.970;10.082;2023-08-08T02:42:58;99089.81;;;13.67;57.68
64189;BME280;50493;50.970;10.082;2023-08-08T02:45:24;99103.69;;;13.71;57.55
64189;BME280;50493;50.970;10.082;2023-08-08T02:47:49;99096.56;;;13.73;57.50
64189;BME280;50493;50.970;10.082;2023-08-08T02:50:16;99101.59;;;13.79;57.33
64189;BME280;50493;50.970;10.082;2023-08-08T02:52:41;99100.44;;;13.87;56.93
64189;BME280;50493;50.970;10.082;2023-08-08T02:55:07;99100.28;;;13.91;56.72
64189;BME280;50493;50.970;10.082;2023-08-08T02:57:33;99094.91;;;13.94;56.71
64189;BME280;50493;50.970;10.082;2023-08-08T02:59:58;99099.28;;;13.94;56.58
64189;BME280;50493;50.970;10.082;2023-08-08T03:02:24;99098.25;;;13.98;56.30
64189;BME280;50493;50.970;10.082;2023-08-08T03:04:49;99090.38;;;13.98;56.39
64189;BME280;50493;50.970;10.082;2023-08-08T03:07:16;99092.34;;;13.93;56.54
64189;BME280;50493;50.970;10.082;2023-08-08T03:09:41;99094.09;;;14.14;55.85
64189;BME280;50493;50.970;10.082;2023-08-08T03:12:08;99090.53;;;14.15;55.73
64189;BME280;50493;50.970;10.082;2023-08-08T03:14:33;99087.47;;;14.26;55.36
64189;BME280;50493;50.970;10.082;2023-08-08T03:16:59;99079.53;;;14.48;57.87
64189;BME280;50493;50.970;10.082;2023-08-08T03:19:24;99085.72;;;14.05;56.23
64189;BME280;50493;50.970;10.082;2023-08-08T03:21:50;99082.47;;;13.98;56.30
64189;BME280;50493;50.970;10.082;2023-08-08T03:24:17;99081.00;;;14.13;55.79
64189;BME280;50493;50.970;10.082;2023-08-08T03:26:42;99077.00;;;14.25;56.02
64189;BME280;50493;50.970;10.082;2023-08-08T03:29:07;99065.78;;;14.21;58.52
64189;BME280;50493;50.970;10.082;2023-08-08T03:31:35;99072.28;;;14.12;55.80
64189;BME280;50493;50.970;10.082;2023-08-08T03:34:01;99071.94;;;13.99;56.30
64189;BME280;50493;50.970;10.082;2023-08-08T03:36:26;99065.59;;;14.26;57.22
64189;BME280;50493;50.970;10.082;2023-08-08T03:38:52;99061.75;;;14.12;55.75
64189;BME280;50493;50.970;10.082;2023-08-08T03:41:18;99060.72;;;14.16;55.64
64189;BME280;50493;50.970;10.082;2023-08-08T03:43:44;99059.66;;;14.21;56.85
64189;BME280;50493;50.970;10.082;2023-08-08T03:46:09;99059.94;;;14.14;55.69
64189;BME280;50493;50.970;10.082;2023-08-08T03:48:36;99059.19;;;14.11;55.60
64189;BME280;50493;50.970;10.082;2023-08-08T03:51:02;99058.34;;;14.10;55.57
64189;BME280;50493;50.970;10.082;2023-08-08T03:53:28;99052.75;;;14.18;55.36
64189;BME280;50493;50.970;10.082;2023-08-08T03:55:53;99059.13;;;14.12;55.46
64189;BME280;50493;50.970;10.082;2023-08-08T03:58:20;99057.03;;;14.41;57.97
64189;BME280;50493;50.970;10.082;2023-08-08T04:00:46;99057.31;;;14.35;55.82
64189;BME280;50493;50.970;10.082;2023-08-08T04:03:12;99055.75;;;14.31;55.22
64189;BME280;50493;50.970;10.082;2023-08-08T04:05:38;99052.50;;;14.45;59.68
64189;BME280;50493;50.970;10.082;2023-08-08T04:08:04;99044.94;;;14.37;60.83
64189;BME280;50493;50.970;10.082;2023-08-08T04:10:29;99046.72;;;14.16;57.74
64189;BME280;50493;50.970;10.082;2023-08-08T04:12:55;99048.75;;;14.09;59.50
64189;BME280;50493;50.970;10.082;2023-08-08T04:15:21;99059.94;;;14.14;57.87
64189;BME280;50493;50.970;10.082;2023-08-08T04:17:47;99055.88;;;14.28;61.48
64189;BME280;50493;50.970;10.082;2023-08-08T04:20:12;99054.69;;;14.14;60.52
64189;BME280;50493;50.970;10.082;2023-08-08T04:22:38;99052.31;;;14.29;58.04
64189;BME280;50493;50.970;10.082;2023-08-08T04:25:04;99052.31;;;14.29;55.13
64189;BME280;50493;50.970;10.082;2023-08-08T04:27:30;99063.47;;;14.13;55.27
64189;BME280;50493;50.970;10.082;2023-08-08T04:29:55;99052.25;;;14.51;59.43
64189;BME280;50493;50.970;10.082;2023-08-08T04:32:22;99054.97;;;14.49;61.13
64189;BME280;50493;50.970;10.082;2023-08-08T04:34:47;99051.78;;;14.21;55.59
64189;BME280;50493;50.970;10.082;2023-08-08T04:37:13;99057.03;;;14.41;60.04
64189;BME280;50493;50.970;10.082;2023-08-08T04:39:38;99069.72;;;14.52;56.34
64189;BME280;50493;50.970;10.082;2023-08-08T04:42:04;99071.31;;;14.56;57.97
64189;BME280;50493;50.970;10.082;2023-08-08T04:44:29;99069.03;;;14.48;54.70
64189;BME280;50493;50.970;10.082;2023-08-08T04:46:55;99065.59;;;14.46;59.34
64189;BME280;50493;50.970;10.082;2023-08-08T04:49:22;99068.69;;;14.36;56.99
64189;BME280;50493;50.970;10.082;2023-08-08T04:51:47;99067.56;;;14.41;56.73
64189;BME280;50493;50.970;10.082;2023-08-08T04:54:13;99068.75;;;14.55;55.28
64189;BME280;50493;50.970;10.082;2023-08-08T04:56:38;99068.38;;;14.83;60.34
64189;BME280;50493;50.970;10.082;2023-08-08T04:59:03;99060.06;;;14.94;58.42
64189;BME280;50493;50.970;10.082;2023-08-08T05:01:29;99058.75;;;14.83;56.52
64189;BME280;50493;50.970;10.082;2023-08-08T05:03:54;99051.47;;;14.89;57.66
64189;BME280;50493;50.970;10.082;2023-08-08T05:06:21;99042.28;;;14.78;53.32
64189;BME280;50493;50.970;10.082;2023-08-08T05:08:46;99045.97;;;14.95;59.29
64189;BME280;50493;50.970;10.082;2023-08-08T05:11:12;99051.59;;;15.06;58.90
64189;BME280;50493;50.970;10.082;2023-08-08T05:13:37;99039.28;;;14.67;55.75
64189;BME280;50493;50.970;10.082;2023-08-08T05:16:03;99048.09;;;14.45;54.07
64189;BME280;50493;50.970;10.082;2023-08-08T05:18:28;99040.88;;;14.71;56.58
64189;BME280;50493;50.970;10.082;2023-08-08T05:20:53;99044.94;;;14.78;53.79
64189;BME280;50493;50.970;10.082;2023-08-08T05:23:20;99042.50;;;14.94;55.41
64189;BME280;50493;50.970;10.082;2023-08-08T05:25:46;99035.38;;;15.15;58.22
64189;BME280;50493;50.970;10.082;2023-08-08T05:28:11;99036.22;;;14.76;58.48
64189;BME280;50493;50.970;10.082;2023-08-08T05:30:36;99033.72;;;14.94;58.48
64189;BME280;50493;50.970;10.082;2023-08-08T05:33:02;99025.34;;;15.24;56.46
64189;BME280;50493;50.970;10.082;2023-08-08T05:35:27;99027.44;;;15.36;53.88
64189;BME280;50493;50.970;10.082;2023-08-08T05:37:53;99020.63;;;15.49;52.91
64189;BME280;50493;50.970;10.082;2023-08-08T05:40:19;99026.28;;;15.78;55.81
64189;BME280;50493;50.970;10.082;2023-08-08T05:42:45;99027.97;;;15.79;51.89
64189;BME280;50493;50.970;10.082;2023-08-08T05:45:10;99030.88;;;15.56;53.91
64189;BME280;50493;50.970;10.082;2023-08-08T05:47:36;99032.38;;;15.98;51.09
64189;BME280;50493;50.970;10.082;2023-08-08T05:50:01;99034.09;;;16.16;54.78
64189;BME280;50493;50.970;10.082;2023-08-08T05:52:27;99032.31;;;16.17;49.57
64189;BME280;50493;50.970;10.082;2023-08-08T05:54:52;99035.03;;;16.15;50.61
64189;BME280;50493;50.970;10.082;2023-08-08T05:57:19;99032.09;;;16.39;50.62
64189;BME280;50493;50.970;10.082;2023-08-08T05:59:46;99037.53;;;16.87;52.81
64189;BME280;50493;50.970;10.082;2023-08-08T06:02:12;99033.59;;;16.61;51.26
64189;BME280;50493;50.970;10.082;2023-08-08T06:04:37;99028.97;;;16.31;49.09
64189;BME280;50493;50.970;10.082;2023-08-08T06:07:03;99023.75;;;16.12;53.83
64189;BME280;50493;50.970;10.082;2023-08-08T06:09:28;99031.91;;;15.90;53.15
64189;BME280;50493;50.970;10.082;2023-08-08T06:11:54;99023.75;;;16.12;52.42
64189;BME280;50493;50.970;10.082;2023-08-08T06:14:20;99027.72;;;15.66;52.45
64189;BME280;50493;50.970;10.082;2023-08-08T06:16:46;99019.34;;;15.95;53.47
64189;BME280;50493;50.970;10.082;2023-08-08T06:19:11;99025.34;;;15.79;50.49
64189;BME280;50493;50.970;10.082;2023-08-08T06:21:39;99021.16;;;15.75;53.71
64189;BME280;50493;50.970;10.082;2023-08-08T06:24:04;99021.94;;;15.41;56.24
64189;BME280;50493;50.970;10.082;2023-08-08T06:26:30;99016.75;;;15.76;54.60
64189;BME280;50493;50.970;10.082;2023-08-08T06:28:55;99022.66;;;15.81;54.51
64189;BME280;50493;50.970;10.082;2023-08-08T06:31:22;99025.00;;;15.68;53.42
64189;BME280;50493;50.970;10.082;2023-08-08T06:33:47;99021.66;;;15.83;53.49
64189;BME280;50493;50.970;10.082;2023-08-08T06:36:13;99028.81;;;15.99;53.73
64189;BME280;50493;50.970;10.082;2023-08-08T06:38:39;99021.84;;;16.15;50.87
64189;BME280;50493;50.970;10.082;2023-08-08T06:41:04;99013.47;;;16.25;53.26
64189;BME280;50493;50.970;10.082;2023-08-08T06:43:30;99024.72;;;16.28;52.18
64189;BME280;50493;50.970;10.082;2023-08-08T06:45:55;99027.69;;;15.85;50.99
64189;BME280;50493;50.970;10.082;2023-08-08T06:48:22;99030.75;;;15.40;55.31
64189;BME280;50493;50.970;10.082;2023-08-08T06:50:47;99029.03;;;15.20;55.00
64189;BME280;50493;50.970;10.082;2023-08-08T06:53:13;99026.88;;;15.66;50.82
64189;BME280;50493;50.970;10.082;2023-08-08T06:55:38;99039.97;;;15.67;53.56
64189;BME280;50493;50.970;10.082;2023-08-08T06:58:04;99031.13;;;15.68;52.66
64189;BME280;50493;50.970;10.082;2023-08-08T07:00:29;99026.59;;;15.53;52.30
64189;BME280;50493;50.970;10.082;2023-08-08T07:02:55;99026.72;;;15.13;52.49
64189;BME280;50493;50.970;10.082;2023-08-08T07:05:21;99021.19;;;15.56;54.56
64189;BME280;50493;50.970;10.082;2023-08-08T07:07:51;99021.50;;;15.50;51.62
64189;BME280;50493;50.970;10.082;2023-08-08T07:10:18;99027.72;;;14.71;54.45
64189;BME280;50493;50.970;10.082;2023-08-08T07:12:43;99021.53;;;15.12;53.90
64189;BME280;50493;50.970;10.082;2023-08-08T07:15:09;99026.72;;;15.69;53.65
64189;BME280;50493;50.970;10.082;2023-08-08T07:17:35;99032.31;;;15.06;52.88
64189;BME280;50493;50.970;10.082;2023-08-08T07:20:00;99029.34;;;14.94;54.39
64189;BME280;50493;50.970;10.082;2023-08-08T07:22:27;99031.53;;;15.61;53.85
64189;BME280;50493;50.970;10.082;2023-08-08T07:24:52;99016.41;;;16.01;52.75
64189;BME280;50493;50.970;10.082;2023-08-08T07:27:18;99018.72;;;16.07;52.57
64189;BME280;50493;50.970;10.082;2023-08-08T07:29:43;99015.94;;;16.10;50.36
64189;BME280;50493;50.970;10.082;2023-08-08T07:32:09;99008.94;;;16.44;51.27
64189;BME280;50493;50.970;10.082;2023-08-08T07:34:34;99001.75;;;16.13;50.54
64189;BME280;50493;50.970;10.082;2023-08-08T07:37:00;99005.16;;;16.32;51.29
64189;BME280;50493;50.970;10.082;2023-08-08T07:39:27;98999.81;;;15.99;51.00
64189;BME280;50493;50.970;10.082;2023-08-08T07:41:52;99001.28;;;16.05;53.37
64189;BME280;50493;50.970;10.082;2023-08-08T07:44:18;99001.19;;;16.06;50.68
64189;BME280;50493;50.970;10.082;2023-08-08T07:46:43;99003.94;;;15.68;51.79
64189;BME280;50493;50.970;10.082;2023-08-08T07:49:09;98997.50;;;15.74;52.19
64189;BME280;50493;50.970;10.082;2023-08-08T07:51:34;99002.63;;;15.96;53.26
64189;BME280;50493;50.970;10.082;2023-08-08T07:54:00;99004.72;;;15.89;52.06
64189;BME280;50493;50.970;10.082;2023-08-08T07:56:27;99005.72;;;16.04;51.46
64189;BME280;50493;50.970;10.082;2023-08-08T07:58:52;99007.13;;;15.75;51.89
64189;BME280;50493;50.970;10.082;2023-08-08T08:01:18;98998.50;;;15.71;51.78
64189;BME280;50493;50.970;10.082;2023-08-08T08:03:44;99006.72;;;15.28;53.97
64189;BME280;50493;50.970;10.082;2023-08-08T08:06:09;99007.41;;;15.32;53.25
64189;BME280;50493;50.970;10.082;2023-08-08T08:08:35;99008.91;;;15.74;53.91
64189;BME280;50493;50.970;10.082;2023-08-08T08:11:01;99006.16;;;16.30;51.68
64189;BME280;50493;50.970;10.082;2023-08-08T08:13:28;98997.19;;;16.16;51.92
64189;BME280;50493;50.970;10.082;2023-08-08T08:15:53;98999.00;;;16.32;52.77
64189;BME280;50493;50.970;10.082;2023-08-08T08:18:19;98999.31;;;16.77;50.07
64189;BME280;50493;50.970;10.082;2023-08-08T08:20:45;99004.16;;;16.00;53.99
64189;BME280;50493;50.970;10.082;2023-08-08T08:23:10;98992.50;;;15.87;54.09
64189;BME280;50493;50.970;10.082;2023-08-08T08:25:36;98989.94;;;16.71;51.19
64189;BME280;50493;50.970;10.082;2023-08-08T08:28:01;98983.41;;;16.78;50.26
64189;BME280;50493;50.970;10.082;2023-08-08T08:30:28;98979.31;;;16.39;53.81
64189;BME280;50493;50.970;10.082;2023-08-08T08:32:53;98986.25;;;16.07;53.41
64189;BME280;50493;50.970;10.082;2023-08-08T08:35:19;98979.88;;;16.62;50.43
64189;BME280;50493;50.970;10.082;2023-08-08T08:37:45;98987.13;;;16.92;51.44
64189;BME280;50493;50.970;10.082;2023-08-08T08:40:11;98982.34;;;17.14;49.81
64189;BME280;50493;50.970;10.082;2023-08-08T08:42:37;98980.84;;;17.42;49.41
64189;BME280;50493;50.970;10.082;2023-08-08T08:45:05;98962.94;;;17.47;48.44
64189;BME280;50493;50.970;10.082;2023-08-08T08:47:33;98964.28;;;17.55;48.22
64189;BME280;50493;50.970;10.082;2023-08-08T08:50:00;98957.44;;;17.97;48.88
64189;BME280;50493;50.970;10.082;2023-08-08T08:52:27;98967.44;;;18.36;49.62
64189;BME280;50493;50.970;10.082;2023-08-08T08:54:53;98963.94;;;17.61;50.90
64189;BME280;50493;50.970;10.082;2023-08-08T08:57:20;98967.22;;;18.11;47.59
64189;BME280;50493;50.970;10.082;2023-08-08T08:59:46;98959.56;;;18.06;48.65
64189;BME280;50493;50.970;10.082;2023-08-08T09:02:11;98956.59;;;18.84;46.55
64189;BME280;50493;50.970;10.082;2023-08-08T09:04:39;98954.50;;;18.32;47.23
64189;BME280;50493;50.970;10.082;2023-08-08T09:07:06;98959.06;;;18.73;46.62
64189;BME280;50493;50.970;10.082;2023-08-08T09:09:32;98949.94;;;18.19;47.60
64189;BME280;50493;50.970;10.082;2023-08-08T09:11:57;98949.25;;;17.71;49.68
64189;BME280;50493;50.970;10.082;2023-08-08T09:14:25;98945.97;;;17.51;50.10
64189;BME280;50493;50.970;10.082;2023-08-08T09:16:52;98956.81;;;16.99;51.84
64189;BME280;50493;50.970;10.082;2023-08-08T09:19:22;98951.03;;;17.24;50.76
64189;BME280;50493;50.970;10.082;2023-08-08T09:21:50;98957.75;;;17.30;50.74
64189;BME280;50493;50.970;10.082;2023-08-08T09:24:15;98965.13;;;17.55;50.59
64189;BME280;50493;50.970;10.082;2023-08-08T09:26:41;98962.84;;;17.01;52.58
64189;BME280;50493;50.970;10.082;2023-08-08T09:29:07;98956.81;;;16.99;51.01
64189;BME280;50493;50.970;10.082;2023-08-08T09:31:34;98955.56;;;17.52;50.99
64189;BME280;50493;50.970;10.082;2023-08-08T09:34:01;98951.00;;;18.46;48.92
64189;BME280;50493;50.970;10.082;2023-08-08T09:36:26;98952.22;;;18.40;47.90
64189;BME280;50493;50.970;10.082;2023-08-08T09:38:53;98956.38;;;18.30;49.67
64189;BME280;50493;50.970;10.082;2023-08-08T09:41:19;98947.13;;;18.95;46.58
64189;BME280;50493;50.970;10.082;2023-08-08T09:43:45;98944.19;;;19.41;47.31
64189;BME280;50493;50.970;10.082;2023-08-08T09:46:10;98942.13;;;19.59;46.04
64189;BME280;50493;50.970;10.082;2023-08-08T09:48:38;98940.59;;;19.28;44.06
64189;BME280;50493;50.970;10.082;2023-08-08T09:51:06;98931.97;;;19.11;47.93
64189;BME280;50493;50.970;10.082;2023-08-08T09:53:32;98935.66;;;18.94;45.93
64189;BME280;50493;50.970;10.082;2023-08-08T09:56:01;98933.31;;;18.32;50.67
64189;BME280;50493;50.970;10.082;2023-08-08T09:58:28;98939.59;;;17.40;51.77
64189;BME280;50493;50.970;10.082;2023-08-08T10:00:53;98934.09;;;17.59;51.30
64189;BME280;50493;50.970;10.082;2023-08-08T10:03:19;98927.19;;;17.72;52.19
64189;BME280;50493;50.970;10.082;2023-08-08T10:05:45;98936.63;;;17.76;50.64
64189;BME280;50493;50.970;10.082;2023-08-08T10:08:11;98929.09;;;17.38;53.85
64189;BME280;50493;50.970;10.082;2023-08-08T10:10:37;98939.56;;;17.56;50.75
64189;BME280;50493;50.970;10.082;2023-08-08T10:13:04;98932.28;;;18.78;48.81
64189;BME280;50493;50.970;10.082;2023-08-08T10:15:30;98931.63;;;18.16;50.97
64189;BME280;50493;50.970;10.082;2023-08-08T10:17:56;98922.16;;;18.12;50.48
64189;BME280;50493;50.970;10.082;2023-08-08T10:20:23;98926.31;;;19.30;47.01
64189;BME280;50493;50.970;10.082;2023-08-08T10:22:52;98927.19;;;18.31;51.93
64189;BME280;50493;50.970;10.082;2023-08-08T10:25:18;98928.81;;;17.59;52.64
64189;BME280;50493;50.970;10.082;2023-08-08T10:27:44;98917.63;;;17.53;52.27
64189;BME280;50493;50.970;10.082;2023-08-08T10:30:11;98929.72;;;17.11;54.27
64189;BME280;50493;50.970;10.082;2023-08-08T10:32:39;98940.25;;;17.90;52.33
64189;BME280;50493;50.970;10.082;2023-08-08T10:35:06;98934.56;;;18.41;48.25
64189;BME280;50493;50.970;10.082;2023-08-08T10:37:32;98938.69;;;17.71;54.16
64189;BME280;50493;50.970;10.082;2023-08-08T10:39:59;98944.47;;;17.78;54.61
64189;BME280;50493;50.970;10.082;2023-08-08T10:42:26;98936.63;;;18.21;52.29
64189;BME280;50493;50.970;10.082;2023-08-08T10:44:52;98934.28;;;18.45;48.56
64189;BME280;50493;50.970;10.082;2023-08-08T10:47:22;98934.41;;;19.00;46.33
64189;BME280;50493;50.970;10.082;2023-08-08T10:49:57;98936.34;;;18.98;50.82
64189;BME280;50493;50.970;10.082;2023-08-08T10:52:22;98925.16;;;19.07;48.92
64189;BME280;50493;50.970;10.082;2023-08-08T10:54:51;98935.78;;;18.78;51.37
64189;BME280;50493;50.970;10.082;2023-08-08T10:57:17;98940.59;;;18.43;51.75
64189;BME280;50493;50.970;10.082;2023-08-08T10:59:44;98942.00;;;18.92;50.54
64189;BME280;50493;50.970;10.082;2023-08-08T11:02:10;98938.97;;;19.12;50.69
64189;BME280;50493;50.970;10.082;2023-08-08T11:04:36;98938.03;;;18.99;50.81
64189;BME280;50493;50.970;10.082;2023-08-08T11:07:02;98941.34;;;19.30;45.46
64189;BME280;50493;50.970;10.082;2023-08-08T11:09:28;98938.91;;;19.81;46.77
64189;BME280;50493;50.970;10.082;2023-08-08T11:11:53;98938.34;;;19.36;44.38
64189;BME280;50493;50.970;10.082;2023-08-08T11:14:20;98934.72;;;19.10;50.28
64189;BME280;50493;50.970;10.082;2023-08-08T11:16:48;98935.16;;;19.16;50.61
64189;BME280;50493;50.970;10.082;2023-08-08T11:19:14;98943.50;;;18.96;50.03
64189;BME280;50493;50.970;10.082;2023-08-08T11:21:44;98940.38;;;19.03;49.40
64189;BME280;50493;50.970;10.082;2023-08-08T11:24:11;98935.25;;;18.73;48.62
64189;BME280;50493;50.970;10.082;2023-08-08T11:26:38;98935.41;;;18.99;51.24
64189;BME280;50493;50.970;10.082;2023-08-08T11:29:05;98945.56;;;19.05;49.08
64189;BME280;50493;50.970;10.082;2023-08-08T11:31:34;98934.38;;;19.56;47.37
64189;BME280;50493;50.970;10.082;2023-08-08T11:34:00;98930.94;;;18.99;50.27
64189;BME280;50493;50.970;10.082;2023-08-08T11:36:29;98932.91;;;19.65;46.77
64189;BME280;50493;50.970;10.082;2023-08-08T11:38:57;98933.22;;;19.73;47.53
64189;BME280;50493;50.970;10.082;2023-08-08T11:41:23;98938.34;;;19.21;50.96
64189;BME280;50493;50.970;10.082;2023-08-08T11:43:50;98934.84;;;19.35;50.17
64189;BME280;50493;50.970;10.082;2023-08-08T11:46:16;98929.66;;;19.19;45.80
64189;BME280;50493;50.970;10.082;2023-08-08T11:48:43;98937.25;;;19.11;51.64
64189;BME280;50493;50.970;10.082;2023-08-08T11:51:14;98930.03;;;19.13;50.41
64189;BME280;50493;50.970;10.082;2023-08-08T11:53:48;98941.47;;;18.72;52.17
64189;BME280;50493;50.970;10.082;2023-08-08T11:56:16;98943.34;;;18.70;51.79
64189;BME280;50493;50.970;10.082;2023-08-08T11:58:41;98938.75;;;18.74;52.06
64189;BME280;50493;50.970;10.082;2023-08-08T12:01:07;98939.84;;;19.26;50.42
64189;BME280;50493;50.970;10.082;2023-08-08T12:03:34;98940.25;;;19.19;48.48
64189;BME280;50493;50.970;10.082;2023-08-08T12:06:11;98934.09;;;19.74;49.02
64189;BME280;50493;50.970;10.082;2023-08-08T12:08:36;98938.28;;;19.50;50.90
64189;BME280;50493;50.970;10.082;2023-08-08T12:11:02;98932.28;;;19.34;50.36
64189;BME280;50493;50.970;10.082;2023-08-08T12:13:30;98931.28;;;19.49;49.07
64189;BME280;50493;50.970;10.082;2023-08-08T12:15:57;98925.31;;;19.18;49.38
64189;BME280;50493;50.970;10.082;2023-08-08T12:18:23;98929.34;;;19.92;48.34
64189;BME280;50493;50.970;10.082;2023-08-08T12:20:49;98934.91;;;19.34;49.83
64189;BME280;50493;50.970;10.082;2023-08-08T12:23:15;98938.22;;;19.37;50.88
64189;BME280;50493;50.970;10.082;2023-08-08T12:25:42;98943.66;;;19.76;46.73
64189;BME280;50493;50.970;10.082;2023-08-08T12:28:07;98943.03;;;19.85;49.00
64189;BME280;50493;50.970;10.082;2023-08-08T12:30:34;98963.56;;;19.69;50.37
64189;BME280;50493;50.970;10.082;2023-08-08T12:33:00;98977.94;;;19.10;50.48
64189;BME280;50493;50.970;10.082;2023-08-08T12:35:26;98981.00;;;18.90;50.68
64189;BME280;50493;50.970;10.082;2023-08-08T12:37:52;98995.19;;;18.60;53.42
64189;BME280;50493;50.970;10.082;2023-08-08T12:40:18;98995.59;;;18.37;54.55
64189;BME280;50493;50.970;10.082;2023-08-08T12:42:43;98997.06;;;18.58;53.32
64189;BME280;50493;50.970;10.082;2023-08-08T12:45:09;98995.19;;;18.60;54.33